USP weather

Uspallata Airport
Uspallata, Mendoza Province, Argentina

Public forecast

Using degrees Celsius for public forecast. Weather courtesy of forecast.io.

METAR (pilot weather report)

Closest report is El Plumerillo Airport, 33.0 nm (61.1 km) ESE. Retrieved 2019/07/18 23:00 UTC (8 minutes ago):

SAME 182300Z 09004KT CAVOK 09/M03 Q1024

TAF (pilot weather forecast)

Closest forecast is El Plumerillo Airport, 33.0 nm (61.1 km) ESE. Retrieved 2019/07/18 18:00 UTC (5 hours ago):

TAF SAME 181700Z 1818/1918 18015KT 9999 BKN030 SCT090 TX13/1820Z TN01/1910Z